createdAt,value
2022-10-01T00:00:48.828Z,97226.72
2022-10-01T00:03:15.355Z,97225.06
2022-10-01T00:05:41.905Z,97221.56
2022-10-01T00:08:08.423Z,97237.84
2022-10-01T00:10:36.731Z,97239.56
2022-10-01T00:13:03.523Z,97243.81
2022-10-01T00:15:30.063Z,97244.69
2022-10-01T00:17:56.600Z,97244.69
2022-10-01T00:20:23.078Z,97239.56
2022-10-01T00:22:50.008Z,97235.28
2022-10-01T00:25:16.649Z,97228.38
2022-10-01T00:27:45.638Z,97236.13
2022-10-01T00:30:12.255Z,97240.41
2022-10-01T00:32:40.285Z,97242.97
2022-10-01T00:35:09.859Z,97238.69
2022-10-01T00:37:37.772Z,97242.13
2022-10-01T00:40:05.146Z,97239.56
2022-10-01T00:42:31.796Z,97223.22
2022-10-01T00:45:02.204Z,97227.63
2022-10-01T00:47:37.808Z,97228.44
2022-10-01T00:50:08.023Z,97225.88
2022-10-01T00:52:34.893Z,97210.34
2022-10-01T00:55:05.416Z,97223.31
2022-10-01T00:57:31.879Z,97223.25
2022-10-01T01:00:00.121Z,97213.75
2022-10-01T01:02:26.759Z,97225.03
2022-10-01T01:04:53.324Z,97226.75
2022-10-01T01:07:19.808Z,97228.44
2022-10-01T01:09:47.487Z,97219.84
2022-10-01T01:12:47.459Z,97219.91
2022-10-01T01:15:22.841Z,97219.91
2022-10-01T01:17:52.029Z,97220.72
2022-10-01T01:20:24.241Z,97216.47
2022-10-01T01:23:03.857Z,97219.03
2022-10-01T01:25:47.338Z,97222.47
2022-10-01T01:28:22.601Z,97219.91
2022-10-01T01:30:50.190Z,97192.31
2022-10-01T01:33:20.813Z,97220.72
2022-10-01T01:35:53.252Z,97218.16
2022-10-01T01:38:21.964Z,97220.72
2022-10-01T01:40:51.414Z,97213.84
2022-10-01T01:43:20.515Z,97217.34
2022-10-01T01:45:48.317Z,97218.13
2022-10-01T01:48:14.820Z,97209.59
2022-10-01T01:50:55.497Z,97213.91
2022-10-01T01:53:21.983Z,97210.50
2022-10-01T01:55:49.269Z,97204.53
2022-10-01T01:58:19.462Z,97204.53
2022-10-01T02:00:47.792Z,97195.09
2022-10-01T02:03:14.284Z,97193.41
2022-10-01T02:05:44.094Z,97193.41
2022-10-01T02:08:16.421Z,97181.41
2022-10-01T02:10:48.773Z,97100.09
2022-10-01T02:13:38.960Z,97184.84
2022-10-01T02:16:18.834Z,97182.28
2022-10-01T02:19:18.687Z,97198.53
2022-10-01T02:21:49.304Z,97192.53
2022-10-01T02:24:37.764Z,97189.91
2022-10-01T02:27:08.673Z,97203.63
2022-10-01T02:29:35.326Z,97207.06
2022-10-01T02:32:01.861Z,97202.75
2022-10-01T02:34:29.444Z,97196.69
2022-10-01T02:36:56.043Z,97195.06
2022-10-01T02:39:22.521Z,97200.19
2022-10-01T02:41:49.575Z,97193.31
2022-10-01T02:44:18.481Z,97194.16
2022-10-01T02:46:57.757Z,97192.50
2022-10-01T02:49:29.790Z,97188.25
2022-10-01T02:52:34.653Z,97183.97
2022-10-01T02:55:05.291Z,97163.31
2022-10-01T02:57:32.850Z,97171.16
2022-10-01T03:00:01.327Z,97178.00
2022-10-01T03:02:28.688Z,97182.25
2022-10-01T03:04:56.839Z,97177.13
2022-10-01T03:07:24.200Z,97179.69
2022-10-01T03:09:51.081Z,97179.69
2022-10-01T03:12:18.213Z,97179.69
2022-10-01T03:14:45.472Z,97171.13
2022-10-01T03:17:12.607Z,97169.44
2022-10-01T03:19:39.162Z,97169.34
2022-10-01T03:22:05.837Z,97180.56
2022-10-01T03:24:32.364Z,97166.06
2022-10-01T03:26:58.871Z,97167.75
2022-10-01T03:29:25.763Z,97168.63
2022-10-01T03:31:52.463Z,97067.59
2022-10-01T03:34:19.149Z,97164.34
2022-10-01T03:36:45.648Z,97161.75
2022-10-01T03:39:12.146Z,97165.19
2022-10-01T03:41:38.683Z,97155.78
2022-10-01T03:44:05.217Z,97145.50
2022-10-01T03:46:31.780Z,97157.50
2022-10-01T03:48:59.532Z,97152.38
2022-10-01T03:51:25.998Z,97150.69
2022-10-01T03:53:52.510Z,97157.50
2022-10-01T03:56:19.019Z,97157.50
2022-10-01T03:58:45.512Z,97150.66
2022-10-01T04:01:12.074Z,97155.81
2022-10-01T04:03:38.671Z,97141.25
2022-10-01T04:06:05.812Z,97144.63
2022-10-01T04:08:32.279Z,97142.06
2022-10-01T04:11:00.837Z,97148.91
2022-10-01T04:13:27.822Z,97155.81
2022-10-01T04:15:54.364Z,97154.09
2022-10-01T04:18:21.634Z,97154.09
2022-10-01T04:20:48.211Z,97153.25
2022-10-01T04:23:14.935Z,97152.41
2022-10-01T04:25:41.461Z,97147.28
2022-10-01T04:28:09.791Z,97143.84
2022-10-01T04:30:38.322Z,97141.28
2022-10-01T04:33:05.117Z,97143.00
2022-10-01T04:35:31.668Z,97137.88
2022-10-01T04:38:03.419Z,97138.72
2022-10-01T04:40:30.842Z,97136.16
2022-10-01T04:42:57.405Z,97137.88
2022-10-01T04:45:23.877Z,97131.88
2022-10-01T04:47:51.051Z,97141.28
2022-10-01T04:50:18.269Z,97134.41
2022-10-01T04:52:44.826Z,97131.03
2022-10-01T04:55:11.431Z,97135.31
2022-10-01T04:57:38.962Z,97137.88
2022-10-01T05:00:10.860Z,97137.00
2022-10-01T05:02:37.783Z,97143.84
2022-10-01T05:05:05.275Z,97141.25
2022-10-01T05:07:32.105Z,97131.81
2022-10-01T05:09:58.667Z,97139.56
2022-10-01T05:12:25.875Z,97145.56
2022-10-01T05:14:53.060Z,97141.22
2022-10-01T05:17:19.835Z,97138.66
2022-10-01T05:19:46.676Z,97137.00
2022-10-01T05:22:13.339Z,97129.31
2022-10-01T05:24:40.134Z,97126.69
2022-10-01T05:27:13.221Z,97125.84
2022-10-01T05:29:41.477Z,97132.75
2022-10-01T05:32:08.743Z,97138.72
2022-10-01T05:34:35.374Z,97143.00
2022-10-01T05:37:02.842Z,97139.50
2022-10-01T05:39:29.938Z,97153.25
2022-10-01T05:41:57.408Z,97152.41
2022-10-01T05:44:24.142Z,97149.78
2022-10-01T05:46:50.649Z,97151.53
2022-10-01T05:49:17.639Z,97149.84
2022-10-01T05:51:44.461Z,97148.97
2022-10-01T05:54:11.512Z,97151.53
2022-10-01T05:56:38.015Z,97151.53
2022-10-01T05:59:04.898Z,97153.25
2022-10-01T06:01:32.486Z,97154.97
2022-10-01T06:03:59.234Z,97154.97
2022-10-01T06:06:26.359Z,97140.34
2022-10-01T06:08:53.030Z,97152.41
2022-10-01T06:11:22.044Z,97154.06
2022-10-01T06:13:48.577Z,97157.53
2022-10-01T06:16:15.154Z,97153.28
2022-10-01T06:18:41.919Z,97148.94
2022-10-01T06:21:08.971Z,97148.16
2022-10-01T06:23:35.502Z,97153.28
2022-10-01T06:26:03.034Z,97147.22
2022-10-01T06:28:29.549Z,97150.72
2022-10-01T06:30:56.085Z,97148.16
2022-10-01T06:33:22.603Z,97150.72
2022-10-01T06:35:50.526Z,97153.28
2022-10-01T06:38:18.101Z,97151.56
2022-10-01T06:40:44.587Z,97151.56
2022-10-01T06:43:11.080Z,97146.38
2022-10-01T06:45:40.713Z,97150.72
2022-10-01T06:48:07.348Z,97145.53
2022-10-01T06:50:34.171Z,97150.72
2022-10-01T06:53:02.083Z,97155.84
2022-10-01T06:55:31.256Z,97153.28
2022-10-01T06:58:04.800Z,97152.44
2022-10-01T07:00:32.665Z,97151.56
2022-10-01T07:02:59.629Z,97138.75
2022-10-01T07:05:26.215Z,97137.03
2022-10-01T07:07:53.633Z,97136.16
2022-10-01T07:10:20.970Z,97133.59
2022-10-01T07:12:50.413Z,97128.47
2022-10-01T07:15:22.816Z,97127.56
2022-10-01T07:17:49.942Z,97129.34
2022-10-01T07:20:20.435Z,97125.09
2022-10-01T07:22:47.606Z,97131.06
2022-10-01T07:25:14.164Z,97129.31
2022-10-01T07:27:40.795Z,97133.63
2022-10-01T07:30:07.931Z,97143.88
2022-10-01T07:32:35.344Z,97137.91
2022-10-01T07:35:01.912Z,97143.88
2022-10-01T07:37:28.519Z,97137.03
2022-10-01T07:39:55.059Z,97133.63
2022-10-01T07:42:21.747Z,97128.47
2022-10-01T07:44:48.288Z,97129.34
2022-10-01T07:47:15.153Z,97118.13
2022-10-01T07:49:42.738Z,97121.66
2022-10-01T07:52:13.097Z,97118.22
2022-10-01T07:54:40.047Z,97102.75
2022-10-01T07:57:06.504Z,97115.66
2022-10-01T07:59:33.212Z,97105.38
2022-10-01T08:02:00.974Z,97096.75
2022-10-01T08:04:46.103Z,97107.16
2022-10-01T08:07:12.690Z,97102.03
2022-10-01T08:09:40.111Z,97093.47
2022-10-01T08:12:09.583Z,97093.47
2022-10-01T08:14:36.062Z,97094.34
2022-10-01T08:17:02.552Z,97090.91
2022-10-01T08:19:29.314Z,97084.88
2022-10-01T08:21:55.792Z,97086.66
2022-10-01T08:24:22.283Z,97072.97
2022-10-01T08:26:53.602Z,97084.91
2022-10-01T08:29:20.401Z,97073.78
2022-10-01T08:31:46.958Z,97086.66
2022-10-01T08:34:13.910Z,97068.69
2022-10-01T08:36:41.370Z,97065.25
2022-10-01T08:39:07.883Z,97059.19
2022-10-01T08:41:53.247Z,97071.25
2022-10-01T08:44:21.785Z,97064.25
2022-10-01T08:46:48.993Z,97087.47
2022-10-01T08:49:23.804Z,96969.34
2022-10-01T08:52:03.560Z,97083.22
2022-10-01T08:55:10.193Z,97090.91
2022-10-01T08:57:39.776Z,97087.41
2022-10-01T09:00:10.261Z,97092.59
2022-10-01T09:02:40.740Z,97075.38
2022-10-01T09:05:16.806Z,97092.59
2022-10-01T09:08:05.376Z,97071.91
2022-10-01T09:10:49.929Z,97095.16
2022-10-01T09:13:24.990Z,97094.31
2022-10-01T09:16:03.657Z,97096.88
2022-10-01T09:18:45.315Z,97092.53
2022-10-01T09:21:23.152Z,97104.53
2022-10-01T09:24:03.608Z,97098.56
2022-10-01T09:26:31.002Z,97090.81
2022-10-01T09:29:00.069Z,97095.13
2022-10-01T09:31:28.281Z,97089.97
2022-10-01T09:34:03.069Z,97073.63
2022-10-01T09:36:47.541Z,97094.25
2022-10-01T09:39:31.384Z,97096.88
2022-10-01T09:41:58.205Z,97096.88
2022-10-01T09:44:29.063Z,97100.25
2022-10-01T09:46:55.579Z,97102.00
2022-10-01T09:49:51.290Z,97098.56
2022-10-01T09:52:36.700Z,97105.38
2022-10-01T09:55:19.781Z,97098.53
2022-10-01T09:58:08.853Z,97092.56
2022-10-01T10:00:36.006Z,97098.56
2022-10-01T10:03:02.653Z,97079.66
2022-10-01T10:05:30.044Z,97087.34
2022-10-01T10:08:23.543Z,97102.00
2022-10-01T10:10:58.836Z,97109.69
2022-10-01T10:13:35.179Z,97101.06
2022-10-01T10:16:27.125Z,97099.31
2022-10-01T10:19:00.571Z,97096.78
2022-10-01T10:21:29.602Z,97113.06
2022-10-01T10:23:58.136Z,97111.34
2022-10-01T10:26:35.105Z,97107.94
2022-10-01T10:29:02.750Z,97108.78
2022-10-01T10:31:42.163Z,97101.09
2022-10-01T10:34:14.645Z,97104.53
2022-10-01T10:36:41.774Z,97095.09
2022-10-01T10:39:20.331Z,97081.38
2022-10-01T10:41:47.089Z,97083.13
2022-10-01T10:44:14.044Z,97088.28
2022-10-01T10:46:45.240Z,97078.91
2022-10-01T10:49:21.221Z,97067.72
2022-10-01T10:51:53.985Z,97075.47
2022-10-01T10:54:30.043Z,97089.16
2022-10-01T10:57:02.543Z,97083.16
2022-10-01T10:59:31.694Z,97082.28
2022-10-01T11:01:59.854Z,97071.94
2022-10-01T11:04:41.171Z,97079.72
2022-10-01T11:07:07.699Z,97072.91
2022-10-01T11:09:44.233Z,97079.72
2022-10-01T11:12:29.204Z,97080.59
2022-10-01T11:15:11.042Z,97083.16
2022-10-01T11:18:09.340Z,97078.91
2022-10-01T11:20:50.089Z,97071.22
2022-10-01T11:23:27.674Z,97071.22
2022-10-01T11:26:22.048Z,97074.63
2022-10-01T11:29:15.102Z,97048.00
2022-10-01T11:31:47.582Z,97067.78
2022-10-01T11:34:14.033Z,97062.66
2022-10-01T11:36:55.253Z,97062.66
2022-10-01T11:39:22.046Z,96986.84
2022-10-01T11:42:03.680Z,97053.28
2022-10-01T11:44:46.752Z,97048.16
2022-10-01T11:47:20.608Z,97041.28
2022-10-01T11:50:05.938Z,97036.16
2022-10-01T11:52:41.188Z,97024.16
2022-10-01T11:55:36.979Z,97027.63
2022-10-01T11:58:42.298Z,97006.25
2022-10-01T12:01:15.901Z,96995.13
2022-10-01T12:03:51.046Z,96994.31
2022-10-01T12:06:20.101Z,96990.00
2022-10-01T12:08:53.921Z,96979.75
2022-10-01T12:11:23.611Z,96978.06
2022-10-01T12:14:09.736Z,96971.25
2022-10-01T12:16:45.252Z,96960.13
2022-10-01T12:19:17.391Z,96920.66
2022-10-01T12:21:49.035Z,96965.25
2022-10-01T12:24:26.313Z,96961.00
2022-10-01T12:27:14.658Z,96983.19
2022-10-01T12:30:07.608Z,96989.88
2022-10-01T12:32:46.179Z,97017.38
2022-10-01T12:35:35.672Z,97019.06
2022-10-01T12:38:14.179Z,97028.47
2022-10-01T12:40:40.795Z,97029.31
2022-10-01T12:43:31.391Z,97025.91
2022-10-01T12:46:08.347Z,97025.03
2022-10-01T12:48:54.828Z,97024.16
2022-10-01T12:51:55.144Z,97032.75
2022-10-01T12:55:12.772Z,97029.31
2022-10-01T12:57:45.171Z,96928.31
2022-10-01T13:00:22.706Z,97030.16
2022-10-01T13:03:21.635Z,97042.13
2022-10-01T13:05:59.457Z,97032.72
2022-10-01T13:08:57.646Z,97021.44
2022-10-01T13:11:39.352Z,97037.84
2022-10-01T13:14:07.228Z,97034.41
2022-10-01T13:16:54.385Z,97042.13
2022-10-01T13:19:48.070Z,97049.78
2022-10-01T13:22:45.971Z,97031.84
2022-10-01T13:25:25.064Z,97032.72
2022-10-01T13:27:56.363Z,97042.09
2022-10-01T13:30:23.804Z,97033.44
2022-10-01T13:32:54.673Z,97048.94
2022-10-01T13:35:36.542Z,97039.53
2022-10-01T13:38:18.614Z,97043.81
2022-10-01T13:40:45.093Z,97037.00
2022-10-01T13:43:21.546Z,97041.25
2022-10-01T13:45:49.694Z,97027.47
2022-10-01T13:48:22.037Z,97044.69
2022-10-01T13:51:02.876Z,97047.25
2022-10-01T13:53:31.154Z,97024.88
2022-10-01T13:55:58.702Z,97044.69
2022-10-01T13:58:31.224Z,97051.50
2022-10-01T14:00:59.710Z,97054.06
2022-10-01T14:03:33.587Z,97043.81
2022-10-01T14:06:01.075Z,97057.50
2022-10-01T14:08:29.607Z,97047.25
2022-10-01T14:11:34.919Z,97053.25
2022-10-01T14:14:34.788Z,97046.38
2022-10-01T14:17:01.631Z,97052.38
2022-10-01T14:19:28.363Z,97046.31
2022-10-01T14:22:16.417Z,97033.41
2022-10-01T14:24:42.840Z,97045.53
2022-10-01T14:27:23.175Z,97041.13
2022-10-01T14:30:02.283Z,97042.13
2022-10-01T14:33:06.235Z,97036.13
2022-10-01T14:35:34.384Z,97031.88
2022-10-01T14:38:02.067Z,97019.06
2022-10-01T14:40:39.486Z,97015.63
2022-10-01T14:43:35.638Z,97025.03
2022-10-01T14:46:04.045Z,97029.28
2022-10-01T14:48:31.936Z,97025.03
2022-10-01T14:51:00.495Z,97012.16
2022-10-01T14:53:28.169Z,97021.59
2022-10-01T14:55:56.917Z,97013.94
2022-10-01T14:58:27.171Z,97013.06
2022-10-01T15:00:54.380Z,97012.22
2022-10-01T15:03:20.907Z,97011.38
2022-10-01T15:05:48.980Z,97008.78
2022-10-01T15:08:17.552Z,97007.94
2022-10-01T15:10:53.741Z,97011.38
2022-10-01T15:13:24.897Z,97021.63
2022-10-01T15:15:51.525Z,97021.56
2022-10-01T15:18:18.088Z,97032.75
2022-10-01T15:21:07.486Z,97035.31
2022-10-01T15:23:36.273Z,97043.78
2022-10-01T15:26:03.768Z,97046.34
2022-10-01T15:28:34.062Z,97056.66
2022-10-01T15:31:03.143Z,97044.63
2022-10-01T15:33:31.190Z,97048.94
2022-10-01T15:35:58.100Z,97056.63
2022-10-01T15:38:24.748Z,97043.69
2022-10-01T15:41:01.828Z,97061.75
2022-10-01T15:43:36.052Z,97060.94
2022-10-01T15:46:05.285Z,97066.88
2022-10-01T15:48:32.561Z,97066.03
2022-10-01T15:51:03.767Z,97065.13
2022-10-01T15:53:30.254Z,97072.00
2022-10-01T15:55:58.119Z,97061.63
2022-10-01T15:58:35.663Z,97076.28
2022-10-01T16:01:06.352Z,97073.72
2022-10-01T16:03:57.495Z,97066.81
2022-10-01T16:06:37.362Z,97081.44
2022-10-01T16:09:11.759Z,97078.00
2022-10-01T16:11:55.143Z,97076.31
2022-10-01T16:14:24.399Z,97087.41
2022-10-01T16:16:51.045Z,97085.66
2022-10-01T16:19:31.223Z,97088.25
2022-10-01T16:22:14.751Z,97088.25
2022-10-01T16:24:42.707Z,97076.31
2022-10-01T16:27:11.987Z,97089.97
2022-10-01T16:29:38.480Z,97089.91
2022-10-01T16:32:04.944Z,97076.16
2022-10-01T16:34:31.431Z,97100.19
2022-10-01T16:36:57.924Z,97103.59
2022-10-01T16:39:25.055Z,97107.03
2022-10-01T16:42:12.129Z,97110.44
2022-10-01T16:44:38.611Z,97107.03
2022-10-01T16:47:05.240Z,97106.16
2022-10-01T16:49:31.725Z,97106.13
2022-10-01T16:51:58.215Z,97111.25
2022-10-01T16:54:26.558Z,97111.28
2022-10-01T16:56:55.072Z,97108.72
2022-10-01T16:59:22.683Z,97110.44
2022-10-01T17:01:51.273Z,97114.72
2022-10-01T17:04:18.628Z,97130.09
2022-10-01T17:06:45.163Z,97133.50
2022-10-01T17:09:11.661Z,97137.72
2022-10-01T17:11:38.814Z,97130.03
2022-10-01T17:14:15.558Z,97136.06
2022-10-01T17:16:43.144Z,97142.06
2022-10-01T17:19:10.435Z,97140.38
2022-10-01T17:21:36.902Z,97132.59
2022-10-01T17:24:03.435Z,97145.50
2022-10-01T17:26:29.918Z,97152.31
2022-10-01T17:28:56.430Z,97158.31
2022-10-01T17:31:22.981Z,97165.13
2022-10-01T17:33:49.731Z,97177.06
2022-10-01T17:36:16.218Z,97176.22
2022-10-01T17:38:44.583Z,97179.59
2022-10-01T17:41:11.084Z,97186.47
2022-10-01T17:43:39.111Z,97195.88
2022-10-01T17:46:05.773Z,97210.38
2022-10-01T17:48:32.291Z,97206.09
2022-10-01T17:51:00.294Z,97215.47
2022-10-01T17:53:31.139Z,97216.34
2022-10-01T17:56:13.012Z,97221.47
2022-10-01T17:58:44.170Z,97219.72
2022-10-01T18:01:13.284Z,97234.28
2022-10-01T18:03:40.428Z,97230.84
2022-10-01T18:06:07.907Z,97224.03
2022-10-01T18:08:54.248Z,97218.91
2022-10-01T18:11:22.147Z,97226.59
2022-10-01T18:13:48.772Z,97226.59
2022-10-01T18:16:19.021Z,97236.84
2022-10-01T18:19:51.808Z,97256.50
2022-10-01T18:21:32.784Z,97242.84
2022-10-01T18:24:03.971Z,97243.66
2022-10-01T18:26:31.221Z,97241.97
2022-10-01T18:28:57.691Z,97229.97
2022-10-01T18:31:28.328Z,97241.97
2022-10-01T18:34:02.097Z,97247.97
2022-10-01T18:36:47.956Z,97251.38
2022-10-01T18:39:32.362Z,97244.53
2022-10-01T18:41:58.904Z,97266.72
2022-10-01T18:44:25.590Z,97244.53
2022-10-01T18:46:54.852Z,97242.81
2022-10-01T18:49:27.203Z,97246.19
2022-10-01T18:52:02.585Z,97260.78
2022-10-01T18:54:44.964Z,97266.72
2022-10-01T18:57:21.360Z,97252.22
2022-10-01T19:00:00.550Z,97261.59
2022-10-01T19:02:39.219Z,97265.03
2022-10-01T19:05:33.893Z,97265.88
2022-10-01T19:08:20.785Z,97261.59
2022-10-01T19:10:55.707Z,97264.16
2022-10-01T19:13:28.321Z,97263.28
2022-10-01T19:16:19.463Z,97264.16
2022-10-01T19:19:07.196Z,97265.00
2022-10-01T19:21:52.571Z,97276.13
2022-10-01T19:24:43.948Z,97260.59
2022-10-01T19:27:50.965Z,97282.97
2022-10-01T19:30:19.129Z,97297.47
2022-10-01T19:33:05.405Z,97299.19
2022-10-01T19:35:34.588Z,97294.06
2022-10-01T19:38:14.731Z,97310.25
2022-10-01T19:40:43.356Z,97297.22
2022-10-01T19:43:36.093Z,97326.50
2022-10-01T19:46:21.772Z,97329.06
2022-10-01T19:49:08.683Z,97326.50
2022-10-01T19:51:45.893Z,97320.38
2022-10-01T19:54:19.869Z,97331.56
2022-10-01T19:56:48.828Z,97341.88
2022-10-01T19:59:19.169Z,97335.88
2022-10-01T20:02:13.243Z,97352.13
2022-10-01T20:04:48.421Z,97352.13
2022-10-01T20:07:24.406Z,97349.50
2022-10-01T20:10:05.748Z,97358.09
2022-10-01T20:12:57.992Z,97367.50
2022-10-01T20:15:56.941Z,97380.31
2022-10-01T20:18:51.315Z,97382.88
2022-10-01T20:21:42.473Z,97392.25
2022-10-01T20:24:33.933Z,97391.44
2022-10-01T20:27:28.011Z,97398.25
2022-10-01T20:30:15.079Z,97410.19
2022-10-01T20:32:50.806Z,97419.63
2022-10-01T20:35:27.857Z,97405.00
2022-10-01T20:38:04.067Z,97412.75
2022-10-01T20:40:37.357Z,97414.47
2022-10-01T20:43:17.470Z,97414.47
2022-10-01T20:45:44.932Z,97422.16
2022-10-01T20:48:24.611Z,97420.44
2022-10-01T20:50:53.879Z,97417.03
2022-10-01T20:53:24.860Z,97427.28
2022-10-01T20:55:54.981Z,97427.28
2022-10-01T20:58:28.625Z,97436.69
2022-10-01T21:01:01.793Z,97428.03
2022-10-01T21:03:39.271Z,97429.72
2022-10-01T21:06:16.894Z,97445.22
2022-10-01T21:08:57.474Z,97440.94
2022-10-01T21:11:34.531Z,97448.63
2022-10-01T21:14:19.647Z,97445.22
2022-10-01T21:17:05.194Z,97441.78
2022-10-01T21:19:40.150Z,97445.22
2022-10-01T21:22:19.667Z,97447.78
2022-10-01T21:24:56.485Z,97455.47
2022-10-01T21:27:27.633Z,97354.91
2022-10-01T21:30:04.569Z,97458.81
2022-10-01T21:32:52.896Z,97463.16
2022-10-01T21:35:43.016Z,97462.31
2022-10-01T21:38:32.105Z,97471.69
2022-10-01T21:40:59.305Z,97473.41
2022-10-01T21:43:43.115Z,97475.94
2022-10-01T21:46:15.521Z,97472.56
2022-10-01T21:49:04.033Z,97470.69
2022-10-01T21:52:04.688Z,97488.78
2022-10-01T21:54:44.561Z,97495.59
2022-10-01T21:57:32.152Z,97493.91
2022-10-01T22:00:19.552Z,97486.22
2022-10-01T22:03:10.586Z,97487.84
2022-10-01T22:06:20.961Z,97497.28
2022-10-01T22:08:59.823Z,97518.66
2022-10-01T22:11:28.940Z,97497.19
2022-10-01T22:14:03.578Z,97518.59
2022-10-01T22:16:38.598Z,97528.03
2022-10-01T22:19:13.851Z,97520.25
2022-10-01T22:21:44.588Z,97536.59
2022-10-01T22:24:24.757Z,97543.41
2022-10-01T22:27:05.561Z,97538.28
2022-10-01T22:29:32.032Z,97557.09
2022-10-01T22:32:01.435Z,97557.09
2022-10-01T22:34:49.288Z,97559.66
2022-10-01T22:37:17.724Z,97569.91
2022-10-01T22:39:50.125Z,97578.47
2022-10-01T22:42:32.251Z,97580.16
2022-10-01T22:45:01.745Z,97587.00
2022-10-01T22:47:44.174Z,97592.13
2022-10-01T22:50:25.263Z,97580.88
2022-10-01T22:52:54.948Z,97600.66
2022-10-01T22:55:24.690Z,97605.78
2022-10-01T22:57:57.433Z,97610.03
2022-10-01T23:00:23.990Z,97611.78
2022-10-01T23:02:59.487Z,97619.47
2022-10-01T23:06:00.108Z,97632.28
2022-10-01T23:08:26.482Z,97619.47
2022-10-01T23:10:59.567Z,97619.44
2022-10-01T23:13:38.352Z,97618.59
2022-10-01T23:16:17.178Z,97619.47
2022-10-01T23:19:22.242Z,97623.72
2022-10-01T23:21:57.775Z,97622.00
2022-10-01T23:24:56.745Z,97633.09
2022-10-01T23:27:45.030Z,97635.66
2022-10-01T23:30:14.214Z,97634.81
2022-10-01T23:32:40.582Z,97638.22
2022-10-01T23:35:14.103Z,97633.09
2022-10-01T23:37:43.436Z,97639.09
2022-10-01T23:40:11.657Z,97612.25
2022-10-01T23:43:24.376Z,97651.91
2022-10-01T23:46:03.088Z,97651.03
2022-10-01T23:48:42.914Z,97651.91
2022-10-01T23:51:13.964Z,97660.50
2022-10-01T23:53:42.833Z,97665.63
2022-10-01T23:56:30.668Z,97669.78
2022-10-01T23:59:25.408Z,97670.69
